Time;durP1;ratioP1;P1;durP2;ratioP2;P2;SDS_P1;SDS_P2;PMS_P1;PMS_P2;Temp;Humidity;BMP_temperature;BMP_pressure;BME280_temperature;BME280_humidity;BME280_pressure;Samples;Min_cycle;Max_cycle;Signal;HPM_P1;HPM_P2
2021/03/13 00:00:38;;;;;;;2.10;1.40;;;;;;;;;;5070648;28;20432;-78
2021/03/13 00:03:04;;;;;;;3.75;1.35;;;6.20;1.00;;;;;;5068105;28;20479;-77
2021/03/13 00:05:37;;;;;;;1.90;1.60;;;6.20;1.00;;;;;;5072241;28;20187;-78
2021/03/13 00:08:03;;;;;;;1.83;0.90;;;6.20;1.00;;;;;;5073323;28;20166;-77
2021/03/13 00:10:30;;;;;;;1.10;1.10;;;6.20;1.00;;;;;;5072837;28;20967;-77
2021/03/13 00:12:56;;;;;;;1.30;1.13;;;;;;;;;;5073209;28;20400;-77
2021/03/13 00:15:22;;;;;;;1.10;1.00;;;6.30;1.00;;;;;;5072824;28;20397;-77
2021/03/13 00:17:50;;;;;;;1.57;1.47;;;6.30;1.00;;;;;;5073340;28;20400;-77
2021/03/13 00:20:19;;;;;;;1.23;1.03;;;6.40;1.00;;;;;;5066576;28;20434;-78
2021/03/13 00:22:51;;;;;;;1.20;1.10;;;6.30;1.00;;;;;;5052798;28;20406;-78
2021/03/13 00:25:18;;;;;;;1.90;1.20;;;6.30;1.00;;;;;;5052681;28;20873;-78
2021/03/13 00:27:47;;;;;;;1.13;1.03;;;;;;;;;;5052828;28;20410;-77
2021/03/13 00:30:13;;;;;;;7.60;1.20;;;;;;;;;;5052861;28;20917;-77
2021/03/13 00:32:39;;;;;;;1.17;1.07;;;;;;;;;;5057413;28;20783;-78
2021/03/13 00:35:05;;;;;;;10.23;1.40;;;6.50;1.00;;;;;;5060818;28;20421;-78
2021/03/13 00:37:31;;;;;;;1.70;0.90;;;;;;;;;;5076301;28;20952;-77
2021/03/13 00:39:57;;;;;;;3.73;0.90;;;;;;;;;;5076818;28;20483;-78
2021/03/13 00:42:23;;;;;;;0.60;0.60;;;;;;;;;;5076865;28;20800;-78
2021/03/13 00:44:49;;;;;;;1.23;0.90;;;;;;;;;;5076770;28;20205;-78
2021/03/13 00:47:15;;;;;;;1.00;1.00;;;;;;;;;;5077052;28;20405;-78
2021/03/13 00:49:41;;;;;;;0.70;0.70;;;;;;;;;;5075849;28;20796;-77
2021/03/13 00:52:07;;;;;;;1.00;0.70;;;;;;;;;;5076596;28;20381;-77
2021/03/13 00:54:33;;;;;;;0.80;0.80;;;;;;;;;;5074982;28;20425;-77
2021/03/13 00:56:59;;;;;;;0.90;0.90;;;;;;;;;;5069506;28;20448;-77
2021/03/13 00:59:25;;;;;;;0.70;0.70;;;;;;;;;;5075218;28;20409;-78
2021/03/13 01:01:56;;;;;;;0.60;0.60;;;6.80;1.00;;;;;;5076959;28;20478;-77
2021/03/13 01:04:23;;;;;;;2.73;1.10;;;;;;;;;;5058105;28;20441;-78
2021/03/13 01:06:49;;;;;;;0.93;0.57;;;;;;;;;;5062702;28;20418;-78
2021/03/13 01:09:15;;;;;;;0.70;0.70;;;;;;;;;;5056167;28;20874;-77
2021/03/13 01:11:41;;;;;;;0.60;0.60;;;;;;;;;;5056451;28;20394;-78
2021/03/13 01:14:07;;;;;;;0.80;0.77;;;;;;;;;;5076413;28;20389;-78
2021/03/13 01:16:33;;;;;;;1.63;1.00;;;6.90;1.00;;;;;;5076301;28;20747;-73
2021/03/13 01:18:59;;;;;;;0.70;0.67;;;7.00;1.00;;;;;;5058727;28;20410;-72
2021/03/13 01:21:25;;;;;;;0.63;0.60;;;;;;;;;;5070151;28;20269;-72
2021/03/13 01:23:51;;;;;;;0.97;0.90;;;;;;;;;;5076006;28;20164;-72
2021/03/13 01:26:17;;;;;;;0.57;0.57;;;;;;;;;;5075824;28;20386;-72
2021/03/13 01:28:43;;;;;;;1.47;1.00;;;;;;;;;;5075838;28;20393;-72
2021/03/13 01:31:09;;;;;;;0.70;0.70;;;;;;;;;;5075742;28;20443;-72
2021/03/13 01:33:34;;;;;;;1.47;0.97;;;7.20;1.00;;;;;;5076265;28;20402;-78
2021/03/13 01:36:00;;;;;;;1.23;0.80;;;;;;;;;;5063197;28;20437;-78
2021/03/13 01:38:32;;;;;;;0.70;0.70;;;7.20;1.00;;;;;;5055660;28;20199;-78
2021/03/13 01:40:58;;;;;;;2.47;0.90;;;;;;;;;;5054440;28;20895;-78
2021/03/13 01:43:24;;;;;;;1.17;0.80;;;;;;;;;;5055571;28;20382;-78
2021/03/13 01:45:50;;;;;;;0.90;0.90;;;7.20;1.00;;;;;;5055727;28;20398;-78
2021/03/13 01:48:17;;;;;;;0.70;0.70;;;7.20;1.00;;;;;;5055999;28;20532;-77
2021/03/13 01:50:44;;;;;;;0.60;0.60;;;;;;;;;;5064896;28;20927;-78
2021/03/13 01:53:10;;;;;;;1.00;0.60;;;;;;;;;;5075644;28;20393;-77
2021/03/13 01:55:36;;;;;;;0.93;0.67;;;;;;;;;;5073862;28;20911;-78
2021/03/13 01:58:02;;;;;;;1.13;0.80;;;;;;;;;;5073654;28;20432;-77
2021/03/13 02:00:28;;;;;;;0.70;0.70;;;;;;;;;;5075294;28;20757;-78
2021/03/13 02:02:54;;;;;;;1.10;0.77;;;7.30;1.00;;;;;;5075683;28;20856;-77
2021/03/13 02:05:30;;;;;;;1.00;0.90;;;7.30;1.00;;;;;;5067810;28;20528;-77
2021/03/13 02:08:17;;;;;;;3.40;0.60;;;7.30;1.00;;;;;;5055119;28;20394;-78
2021/03/13 02:10:50;;;;;;;0.70;0.70;;;7.30;1.00;;;;;;5055126;28;20438;-77
2021/03/13 02:13:23;;;;;;;0.60;0.60;;;7.30;1.00;;;;;;5054912;28;20402;-77
2021/03/13 02:15:57;;;;;;;1.00;0.90;;;7.30;1.00;;;;;;5054828;28;20390;-78
2021/03/13 02:18:48;;;;;;;1.10;0.90;;;7.30;1.00;;;;;;5055430;28;20387;-72
2021/03/13 02:21:21;;;;;;;4.93;0.70;;;7.30;1.00;;;;;;5067710;28;21017;-72
2021/03/13 02:24:12;;;;;;;0.80;0.80;;;7.20;1.00;;;;;;5073517;28;20420;-72
2021/03/13 02:26:46;;;;;;;2.03;1.00;;;7.20;1.00;;;;;;5074724;28;20393;-72
2021/03/13 02:29:14;;;;;;;1.17;0.60;;;7.20;1.00;;;;;;5074650;28;20444;-72
2021/03/13 02:31:48;;;;;;;1.50;0.60;;;7.20;1.00;;;;;;5074649;28;20872;-72
2021/03/13 02:34:20;;;;;;;0.70;0.70;;;7.30;1.00;;;;;;5067798;28;20410;-78
2021/03/13 02:36:47;;;;;;;6.70;0.83;;;7.30;1.00;;;;;;5055090;28;20769;-77
2021/03/13 02:39:16;;;;;;;0.60;0.60;;;7.20;1.00;;;;;;5054623;28;20525;-78
2021/03/13 02:41:45;;;;;;;0.70;0.70;;;7.20;1.00;;;;;;5056165;28;20422;-78
2021/03/13 02:44:15;;;;;;;0.83;0.70;;;7.20;1.00;;;;;;5054424;28;20409;-77
2021/03/13 02:46:43;;;;;;;0.90;0.60;;;7.20;1.00;;;;;;5054519;28;20452;-77
2021/03/13 02:49:11;;;;;;;0.97;0.70;;;7.20;1.00;;;;;;5054609;28;20454;-73
2021/03/13 02:51:39;;;;;;;2.70;0.77;;;7.20;1.00;;;;;;5070732;28;20421;-72
2021/03/13 02:54:06;;;;;;;0.80;0.73;;;7.20;1.00;;;;;;5073499;28;20398;-72
2021/03/13 02:56:32;;;;;;;2.20;0.70;;;;;;;;;;5064219;28;20414;-72
2021/03/13 02:59:00;;;;;;;1.53;0.70;;;7.10;1.00;;;;;;5070868;28;20461;-73
2021/03/13 03:01:30;;;;;;;0.63;0.63;;;7.20;1.00;;;;;;5074051;28;20452;-72
2021/03/13 03:03:58;;;;;;;0.73;0.73;;;7.20;1.00;;;;;;5071368;28;20433;-77
2021/03/13 03:06:24;;;;;;;1.85;0.60;;;7.10;1.00;;;;;;5067704;28;20496;-78
2021/03/13 03:08:51;;;;;;;2.07;0.83;;;7.10;1.00;;;;;;5073867;28;20179;-77
2021/03/13 03:11:22;;;;;;;8.33;0.80;;;7.10;1.00;;;;;;5062077;28;20422;-78
2021/03/13 03:13:50;;;;;;;1.20;0.80;;;7.10;1.00;;;;;;5053984;28;20401;-78
2021/03/13 03:16:16;;;;;;;1.67;0.70;;;7.10;1.00;;;;;;5052365;28;20748;-77
2021/03/13 03:18:42;;;;;;;0.70;0.60;;;;;;;;;;5054050;28;20406;-78
2021/03/13 03:21:09;;;;;;;2.40;0.60;;;7.10;1.00;;;;;;5053735;28;20179;-78
2021/03/13 03:23:38;;;;;;;1.00;0.60;;;7.00;1.00;;;;;;5053850;28;20391;-78
2021/03/13 03:26:04;;;;;;;0.50;0.50;;;;;;;;;;5065449;28;20413;-78
2021/03/13 03:28:30;;;;;;;2.37;0.73;;;;;;;;;;5073690;28;20401;-78
2021/03/13 03:30:55;;;;;;;3.00;0.70;;;7.10;1.00;;;;;;5073662;28;20928;-78
2021/03/13 03:33:22;;;;;;;0.70;0.70;;;7.00;1.00;;;;;;5060508;28;20419;-72
2021/03/13 03:35:48;;;;;;;1.73;0.90;;;;;;;;;;5063544;28;20483;-72
2021/03/13 03:38:14;;;;;;;2.80;0.70;;;7.00;1.00;;;;;;5073243;28;20486;-72
2021/03/13 03:40:41;;;;;;;0.50;0.50;;;7.10;1.00;;;;;;5062886;28;20456;-72
2021/03/13 03:43:13;;;;;;;1.77;0.60;;;7.00;1.00;;;;;;5053352;28;20390;-73
2021/03/13 03:45:46;;;;;;;2.30;0.50;;;7.00;1.00;;;;;;5053445;28;20828;-72
2021/03/13 03:48:15;;;;;;;3.23;0.90;;;7.00;1.00;;;;;;5052191;28;20426;-77
2021/03/13 03:50:43;;;;;;;3.83;0.83;;;7.00;1.00;;;;;;5061189;28;20798;-78
2021/03/13 03:53:21;;;;;;;1.40;0.77;;;7.10;1.00;;;;;;5072051;28;20410;-78
2021/03/13 03:55:50;;;;;;;4.83;0.70;;;7.10;1.00;;;;;;5072931;28;20416;-78
2021/03/13 03:58:24;;;;;;;1.73;0.90;;;7.10;1.00;;;;;;5072265;28;20461;-78
2021/03/13 04:00:51;;;;;;;0.60;0.50;;;7.10;1.00;;;;;;5069424;28;20433;-78
2021/03/13 04:03:19;;;;;;;0.83;0.60;;;7.20;1.00;;;;;;5073419;28;20448;-73
2021/03/13 04:05:46;;;;;;;1.33;0.60;;;7.20;1.00;;;;;;5070094;28;20424;-73
2021/03/13 04:08:14;;;;;;;0.70;0.70;;;7.20;1.00;;;;;;5093192;28;20392;-72
2021/03/13 04:10:43;;;;;;;0.90;0.63;;;7.20;1.00;;;;;;5091763;28;20545;-72
2021/03/13 04:13:11;;;;;;;1.03;0.60;;;7.20;1.00;;;;;;5078310;28;20467;-73
2021/03/13 04:15:39;;;;;;;1.20;0.67;;;7.20;1.00;;;;;;5072525;28;20390;-72
2021/03/13 04:18:05;;;;;;;2.53;0.77;;;7.20;1.00;;;;;;5073310;28;20813;-72
2021/03/13 04:20:31;;;;;;;0.80;0.80;;;;;;;;;;5070662;28;20448;-78
2021/03/13 04:22:57;;;;;;;0.83;0.60;;;;;;;;;;5072944;28;20485;-78
2021/03/13 04:25:24;;;;;;;2.10;0.67;;;;;;;;;;5072866;28;20861;-78
2021/03/13 04:27:50;;;;;;;6.50;0.90;;;7.30;1.00;;;;;;5073156;28;20385;-78
2021/03/13 04:30:18;;;;;;;4.80;0.60;;;7.30;1.00;;;;;;5072753;28;20472;-77
2021/03/13 04:32:47;;;;;;;0.60;0.60;;;7.30;1.00;;;;;;5073063;28;20444;-78
2021/03/13 04:35:15;;;;;;;3.50;0.80;;;7.30;1.00;;;;;;5068904;28;20487;-73
2021/03/13 04:37:41;;;;;;;0.90;0.70;;;7.30;1.00;;;;;;5072540;28;20426;-73
2021/03/13 04:40:08;;;;;;;2.60;0.70;;;7.30;1.00;;;;;;5072695;28;20869;-73
2021/03/13 04:42:37;;;;;;;1.47;0.87;;;7.30;1.00;;;;;;5072457;28;20420;-72
2021/03/13 04:45:03;;;;;;;3.30;0.70;;;7.30;1.00;;;;;;5072471;28;20393;-73
2021/03/13 04:47:29;;;;;;;0.40;0.40;;;;;;;;;;5072562;28;20515;-73
2021/03/13 04:49:55;;;;;;;0.60;0.60;;;;;;;;;;5066713;28;20903;-78
2021/03/13 04:52:20;;;;;;;0.97;0.57;;;7.30;1.00;;;;;;5073011;28;20389;-77
2021/03/13 04:54:46;;;;;;;0.50;0.50;;;;;;;;;;5072557;28;20793;-79
2021/03/13 04:57:13;;;;;;;6.93;0.80;;;7.30;1.00;;;;;;5072575;28;20155;-78
2021/03/13 04:59:39;;;;;;;1.80;0.90;;;;;;;;;;5071166;28;20429;-78
2021/03/13 05:02:05;;;;;;;2.83;0.70;;;;;;;;;;5071923;28;20425;-78
2021/03/13 05:04:31;;;;;;;1.13;0.50;;;;;;;;;;5070550;28;20982;-73
2021/03/13 05:06:57;;;;;;;0.57;0.57;;;;;;;;;;5072272;28;20463;-73
2021/03/13 05:09:23;;;;;;;0.83;0.70;;;;;;;;;;5072239;28;20449;-73
2021/03/13 05:11:49;;;;;;;0.87;0.63;;;;;;;;;;5072297;28;20389;-73
2021/03/13 05:14:15;;;;;;;0.50;0.50;;;;;;;;;;5070827;28;20492;-73
2021/03/13 05:16:41;;;;;;;1.27;0.60;;;;;;;;;;5072917;28;20480;-73
2021/03/13 05:19:07;;;;;;;0.50;0.50;;;;;;;;;;5075413;28;20417;-73
2021/03/13 05:21:33;;;;;;;4.93;1.00;;;;;;;;;;5075321;28;20429;-73
2021/03/13 05:23:59;;;;;;;3.30;1.40;;;7.20;1.00;;;;;;5075997;28;20745;-73
2021/03/13 05:26:25;;;;;;;0.60;0.60;;;;;;;;;;5075795;28;20402;-73
2021/03/13 05:28:51;;;;;;;2.60;0.80;;;;;;;;;;5075840;28;20163;-73
2021/03/13 05:31:16;;;;;;;2.77;0.50;;;7.30;1.00;;;;;;5075692;28;20528;-73
2021/03/13 05:33:42;;;;;;;1.10;0.60;;;;;;;;;;5074271;28;20512;-74
2021/03/13 05:36:09;;;;;;;2.80;0.40;;;7.30;1.00;;;;;;5076099;28;20233;-78
2021/03/13 05:38:35;;;;;;;0.50;0.50;;;;;;;;;;5074390;28;20432;-78
2021/03/13 05:41:01;;;;;;;1.17;0.40;;;;;;;;;;5075801;28;20485;-79
2021/03/13 05:43:27;;;;;;;1.10;0.50;;;;;;;;;;5075649;28;20403;-78
2021/03/13 05:45:56;;;;;;;1.37;0.70;;;7.40;1.00;;;;;;5075765;28;20398;-78
2021/03/13 05:48:25;;;;;;;0.70;0.50;;;7.40;1.00;;;;;;5074089;28;20422;-78
2021/03/13 05:50:53;;;;;;;0.50;0.50;;;7.50;1.00;;;;;;5075810;28;20475;-78
2021/03/13 05:53:19;;;;;;;1.73;0.60;;;;;;;;;;5075675;28;20425;-78
2021/03/13 05:55:45;;;;;;;1.70;0.50;;;;;;;;;;5075396;28;20446;-78
2021/03/13 05:58:11;;;;;;;2.60;0.50;;;;;;;;;;5074233;28;20412;-78
2021/03/13 06:00:38;;;;;;;3.77;0.70;;;;;;;;;;5074023;28;20433;-78
2021/03/13 06:03:04;;;;;;;2.73;0.70;;;;;;;;;;5060681;28;20916;-78
2021/03/13 06:05:30;;;;;;;1.43;0.50;;;;;;;;;;5069995;28;20417;-73
2021/03/13 06:07:58;;;;;;;4.13;0.50;;;7.60;1.00;;;;;;5075403;28;20400;-73
2021/03/13 06:10:24;;;;;;;1.00;0.50;;;;;;;;;;5075053;28;20524;-73
2021/03/13 06:12:50;;;;;;;1.90;0.50;;;;;;;;;;5073404;28;20410;-73
2021/03/13 06:15:18;;;;;;;0.30;0.30;;;7.70;1.00;;;;;;5074733;28;20995;-73
2021/03/13 06:17:58;;;;;;;6.50;0.60;;;7.70;1.00;;;;;;5074773;28;20409;-73
2021/03/13 06:20:34;;;;;;;0.87;0.50;;;7.80;1.00;;;;;;5071636;28;20438;-73
2021/03/13 06:23:20;;;;;;;6.57;0.67;;;7.80;1.00;;;;;;5074898;28;20593;-73
2021/03/13 06:25:47;;;;;;;1.03;0.50;;;;;;;;;;5074289;28;20462;-72
2021/03/13 06:28:20;;;;;;;3.43;0.60;;;7.80;1.00;;;;;;5073604;28;20386;-73
2021/03/13 06:30:50;;;;;;;0.60;0.50;;;7.90;1.00;;;;;;5074615;28;20654;-73
2021/03/13 06:33:30;;;;;;;5.37;0.60;;;7.90;1.00;;;;;;5073093;28;20562;-73
2021/03/13 06:36:06;;;;;;;5.13;1.13;;;7.90;1.00;;;;;;5075039;28;20440;-78
2021/03/13 06:38:34;;;;;;;3.60;0.90;;;8.00;1.00;;;;;;5074455;28;20429;-78
2021/03/13 06:41:19;;;;;;;0.57;0.53;;;8.00;1.00;;;;;;5074633;28;20407;-78
2021/03/13 06:43:51;;;;;;;2.40;0.70;;;8.00;1.00;;;;;;5074545;28;20404;-78
2021/03/13 06:46:19;;;;;;;3.33;0.80;;;8.00;1.00;;;;;;5073249;28;20406;-78
2021/03/13 06:48:52;;;;;;;2.13;1.10;;;8.10;1.00;;;;;;5072869;28;20428;-77
2021/03/13 06:51:37;;;;;;;0.93;0.50;;;8.10;1.00;;;;;;5074294;28;20449;-74
2021/03/13 06:54:14;;;;;;;0.83;0.60;;;8.10;1.00;;;;;;5074259;28;20868;-73
2021/03/13 06:56:41;;;;;;;1.57;0.60;;;8.20;1.00;;;;;;5074136;28;20396;-74
2021/03/13 06:59:30;;;;;;;6.63;0.50;;;8.30;1.00;;;;;;5074062;28;20768;-74
2021/03/13 07:02:03;;;;;;;1.37;0.70;;;8.30;1.00;;;;;;5068601;28;20447;-76
2021/03/13 07:04:34;;;;;;;1.17;0.50;;;8.30;1.00;;;;;;5083491;28;20434;-76
2021/03/13 07:07:00;;;;;;;0.60;0.60;;;;;;;;;;5054569;28;20479;-84
2021/03/13 07:09:52;;;;;;;1.43;0.53;;;8.50;1.00;;;;;;5054272;28;20446;-84
2021/03/13 07:12:26;;;;;;;1.53;0.53;;;8.50;1.00;;;;;;5069688;28;20418;-80
2021/03/13 07:14:53;;;;;;;0.40;0.40;;;8.50;1.00;;;;;;5065207;28;20570;-79
2021/03/13 07:17:19;;;;;;;1.47;0.60;;;;;;;;;;5073949;28;20394;-81
2021/03/13 07:19:45;;;;;;;3.53;0.80;;;;;;;;;;5070303;28;20406;-76
2021/03/13 07:22:13;;;;;;;29.27;12.37;;;8.70;1.00;;;;;;5056204;28;20414;-75
2021/03/13 07:24:43;;;;;;;3.77;0.90;;;8.70;1.00;;;;;;5062328;28;20417;-74
2021/03/13 07:27:11;;;;;;;2.83;1.07;;;8.70;1.00;;;;;;5090493;28;20428;-75
2021/03/13 07:29:39;;;;;;;0.70;0.70;;;8.70;1.00;;;;;;5073325;28;20456;-74
2021/03/13 07:32:14;;;;;;;9.23;3.90;;;8.70;1.00;;;;;;5073377;28;20468;-75
2021/03/13 07:34:41;;;;;;;4.07;2.17;;;8.70;1.00;;;;;;5059691;28;20443;-75
2021/03/13 07:37:08;;;;;;;1.40;0.60;;;8.80;1.00;;;;;;5072753;28;20424;-76
2021/03/13 07:39:41;;;;;;;9.53;3.90;;;8.80;1.00;;;;;;5073205;28;20498;-85
2021/03/13 07:42:20;;;;;;;7.13;2.40;;;8.80;1.00;;;;;;5072651;28;20754;-78
2021/03/13 07:44:47;;;;;;;13.93;6.10;;;8.80;1.00;;;;;;5053121;28;20430;-83
2021/03/13 07:47:15;;;;;;;2.20;0.83;;;8.80;1.00;;;;;;5071302;28;20424;-78
2021/03/13 07:49:41;;;;;;;6.60;2.97;;;;;;;;;;5073128;28;20429;-78
2021/03/13 07:52:09;;;;;;;1.57;1.47;;;8.90;1.00;;;;;;5073497;28;20785;-81
2021/03/13 07:54:50;;;;;;;3.63;1.10;;;8.90;1.00;;;;;;5073948;28;20443;-88
2021/03/13 07:57:19;;;;;;;27.70;12.53;;;9.00;1.00;;;;;;5073072;28;20459;-83
2021/03/13 07:59:47;;;;;;;8.00;3.20;;;9.10;1.00;;;;;;5073141;28;20728;-78
2021/03/13 08:02:28;;;;;;;1.37;0.73;;;9.10;1.00;;;;;;5073183;28;20421;-78
2021/03/13 08:05:09;;;;;;;19.20;7.10;;;9.20;1.00;;;;;;5057849;28;20974;-78
2021/03/13 08:08:00;;;;;;;1.27;1.03;;;9.30;1.00;;;;;;5071170;28;20393;-78
2021/03/13 08:10:45;;;;;;;1.77;0.90;;;9.30;1.00;;;;;;5072987;28;20489;-78
2021/03/13 08:13:31;;;;;;;0.90;0.90;;;9.40;1.00;;;;;;5072927;28;20446;-77
2021/03/13 08:16:11;;;;;;;2.07;0.70;;;9.40;1.00;;;;;;5072458;28;20766;-78
2021/03/13 08:18:44;;;;;;;4.87;1.80;;;9.30;1.00;;;;;;5072854;28;20389;-78
2021/03/13 08:21:35;;;;;;;0.60;0.53;;;9.30;1.00;;;;;;5072739;28;20425;-72
2021/03/13 08:24:02;;;;;;;2.90;1.00;;;9.30;1.00;;;;;;5032711;28;20434;-72
2021/03/13 08:26:33;;;;;;;3.10;1.93;;;9.30;1.00;;;;;;5030368;28;20912;-72
2021/03/13 08:28:59;;;;;;;10.67;4.83;;;;;;;;;;5019306;28;20472;-72
2021/03/13 08:31:26;;;;;;;3.27;0.97;;;;;;;;;;5028673;28;20429;-72
2021/03/13 08:33:58;;;;;;;6.47;3.10;;;9.50;1.00;;;;;;5030462;28;20577;-78
2021/03/13 08:36:29;;;;;;;3.00;1.60;;;9.50;1.00;;;;;;5030928;28;20455;-84
2021/03/13 08:38:55;;;;;;;0.90;0.63;;;;;;;;;;5030340;28;20435;-78
2021/03/13 08:41:44;;;;;;;26.80;8.20;;;9.60;1.00;;;;;;5030592;28;20442;-78
2021/03/13 08:44:35;;;;;;;0.70;0.60;;;9.60;1.00;;;;;;5030189;28;20430;-77
2021/03/13 08:47:06;;;;;;;1.77;0.67;;;9.60;1.00;;;;;;5017341;28;20560;-78
2021/03/13 08:49:32;;;;;;;3.67;1.83;;;;;;;;;;5011462;28;20448;-83
2021/03/13 08:52:09;;;;;;;4.23;0.73;;;9.70;1.00;;;;;;5029395;28;20432;-86
2021/03/13 08:54:47;;;;;;;1.63;0.80;;;9.70;1.00;;;;;;5015090;28;20458;-83
2021/03/13 08:57:15;;;;;;;3.77;1.37;;;9.70;1.00;;;;;;5034992;28;20433;-84
2021/03/13 08:59:45;;;;;;;0.67;0.67;;;9.70;1.00;;;;;;5036720;28;20406;-86
2021/03/13 09:02:19;;;;;;;1.27;0.57;;;9.80;1.00;;;;;;5077153;28;20443;-80
2021/03/13 09:04:50;;;;;;;1.57;0.67;;;9.80;1.00;;;;;;5070902;28;20432;-79
2021/03/13 09:07:20;;;;;;;6.93;1.80;;;9.80;1.00;;;;;;5076444;28;20421;-73
2021/03/13 09:09:47;;;;;;;20.70;8.63;;;9.80;1.00;;;;;;5076146;28;20482;-74
2021/03/13 09:12:15;;;;;;;2.10;0.60;;;9.80;1.00;;;;;;5075966;28;20393;-73
2021/03/13 09:14:49;;;;;;;1.10;0.60;;;9.80;1.00;;;;;;5056063;28;20421;-74
2021/03/13 09:17:19;;;;;;;1.40;0.73;;;9.80;1.00;;;;;;5060853;28;20418;-73
2021/03/13 09:19:47;;;;;;;0.80;0.50;;;9.80;1.00;;;;;;5057248;28;20421;-74
2021/03/13 09:22:20;;;;;;;0.90;0.57;;;9.80;1.00;;;;;;5074139;28;20412;-72
2021/03/13 09:25:04;;;;;;;0.70;0.50;;;9.80;1.00;;;;;;5071929;28;20413;-72
2021/03/13 09:27:31;;;;;;;18.50;8.70;;;9.80;1.00;;;;;;5075809;28;20394;-72
2021/03/13 09:29:58;;;;;;;2.97;1.07;;;9.80;1.00;;;;;;5075722;28;20445;-72
2021/03/13 09:32:26;;;;;;;8.73;4.57;;;9.80;1.00;;;;;;5075722;28;20401;-72
2021/03/13 09:34:54;;;;;;;1.73;0.90;;;9.80;1.00;;;;;;5075773;28;20420;-72
2021/03/13 09:37:30;;;;;;;8.00;3.07;;;9.80;1.00;;;;;;5075775;28;20421;-72
2021/03/13 09:40:06;;;;;;;0.60;0.50;;;9.90;1.00;;;;;;5091331;28;20425;-72
2021/03/13 09:42:33;;;;;;;0.60;0.40;;;9.80;1.00;;;;;;5075464;28;20404;-72
2021/03/13 09:45:02;;;;;;;1.47;0.60;;;9.80;1.00;;;;;;5075535;28;20405;-72
2021/03/13 09:47:39;;;;;;;3.37;1.17;;;;;;;;;;5075484;28;20888;-72
2021/03/13 09:50:09;;;;;;;1.57;0.50;;;9.80;1.00;;;;;;5075365;28;20437;-72
2021/03/13 09:52:53;;;;;;;0.93;0.50;;;9.80;1.00;;;;;;5076043;28;20406;-72
2021/03/13 09:55:31;;;;;;;0.93;0.70;;;9.80;1.00;;;;;;5075417;28;20398;-72
2021/03/13 09:57:59;;;;;;;1.53;1.00;;;9.90;1.00;;;;;;5075283;28;20764;-72
2021/03/13 10:00:32;;;;;;;2.03;0.63;;;9.90;1.00;;;;;;5075277;28;20409;-72
2021/03/13 10:03:01;;;;;;;1.53;0.67;;;9.90;1.00;;;;;;5075173;28;20409;-72
2021/03/13 10:05:29;;;;;;;2.40;0.70;;;9.90;1.00;;;;;;5072972;28;20433;-75
2021/03/13 10:07:55;;;;;;;0.50;0.50;;;;;;;;;;5075842;28;20750;-73
2021/03/13 10:10:27;;;;;;;0.80;0.50;;;9.90;1.00;;;;;;5075277;28;20444;-73
2021/03/13 10:13:03;;;;;;;1.33;0.50;;;10.00;1.00;;;;;;5075373;28;20428;-73
2021/03/13 10:15:30;;;;;;;1.00;0.57;;;;;;;;;;5074306;28;20441;-73
2021/03/13 10:17:56;;;;;;;1.70;0.40;;;;;;;;;;5074899;28;20436;-72
2021/03/13 10:20:24;;;;;;;0.60;0.50;;;10.00;1.00;;;;;;5074357;28;20421;-74
2021/03/13 10:22:50;;;;;;;2.10;0.50;;;;;;;;;;5078097;28;20431;-72
2021/03/13 10:25:16;;;;;;;0.50;0.40;;;;;;;;;;5074546;28;20823;-73
2021/03/13 10:27:43;;;;;;;0.40;0.40;;;10.00;1.00;;;;;;5073525;28;20828;-73
2021/03/13 10:30:10;;;;;;;0.40;0.40;;;10.10;1.00;;;;;;5064100;28;20956;-73
2021/03/13 10:32:37;;;;;;;0.50;0.40;;;10.00;1.00;;;;;;5073101;28;20409;-73
2021/03/13 10:35:10;;;;;;;0.70;0.50;;;9.80;1.00;;;;;;5074775;28;20899;-73
2021/03/13 10:37:38;;;;;;;1.47;0.67;;;9.70;1.00;;;;;;5074770;28;20838;-77
2021/03/13 10:40:04;;;;;;;0.50;0.50;;;9.50;1.00;;;;;;5074619;28;20484;-75
2021/03/13 10:42:34;;;;;;;5.90;0.70;;;;;;;;;;5074453;28;20412;-77
2021/03/13 10:45:18;;;;;;;0.40;0.40;;;9.10;1.00;;;;;;5067598;28;20421;-77
2021/03/13 10:47:45;;;;;;;0.50;0.50;;;8.90;1.00;;;;;;5059060;28;20939;-72
2021/03/13 10:50:13;;;;;;;0.40;0.40;;;8.70;1.00;;;;;;5071098;28;20445;-76
2021/03/13 10:52:44;;;;;;;0.90;0.37;;;8.50;1.00;;;;;;5073901;28;20409;-77
2021/03/13 10:55:38;;;;;;;0.53;0.50;;;8.40;1.00;;;;;;5075274;28;20896;-78
2021/03/13 10:58:04;;;;;;;1.07;0.50;;;8.20;1.00;;;;;;5090913;28;20896;-76
2021/03/13 11:00:30;;;;;;;0.40;0.40;;;;;;;;;;5075151;28;20416;-75
2021/03/13 11:02:56;;;;;;;0.40;0.37;;;8.10;1.00;;;;;;5075147;28;20938;-77
2021/03/13 11:05:22;;;;;;;0.70;0.60;;;8.00;1.00;;;;;;5072189;28;20417;-75
2021/03/13 11:07:56;;;;;;;0.40;0.40;;;8.00;1.00;;;;;;5070552;28;20300;-76
2021/03/13 11:10:22;;;;;;;0.40;0.40;;;7.90;1.00;;;;;;5074953;28;20220;-78
2021/03/13 11:12:50;;;;;;;0.30;0.30;;;7.80;1.00;;;;;;5075071;28;20421;-77
2021/03/13 11:15:20;;;;;;;0.40;0.40;;;7.90;1.00;;;;;;5078769;28;20450;-77
2021/03/13 11:17:47;;;;;;;0.40;0.40;;;7.90;1.00;;;;;;5074292;28;20859;-76
2021/03/13 11:20:21;;;;;;;0.83;0.53;;;7.90;1.00;;;;;;5073716;28;20452;-76
2021/03/13 11:22:46;;;;;;;0.40;0.40;;;7.80;1.00;;;;;;5078624;28;20545;-73
2021/03/13 11:25:13;;;;;;;0.30;0.30;;;7.80;1.00;;;;;;5094801;28;20437;-73
2021/03/13 11:27:38;;;;;;;0.70;0.50;;;7.80;1.00;;;;;;5093363;28;20186;-72
2021/03/13 11:30:07;;;;;;;0.50;0.50;;;7.80;1.00;;;;;;5094080;28;20456;-73
2021/03/13 11:32:33;;;;;;;1.43;0.40;;;7.80;1.00;;;;;;5094505;28;20324;-73
2021/03/13 11:34:59;;;;;;;0.30;0.30;;;7.70;1.00;;;;;;5094969;28;20891;-74
2021/03/13 11:37:25;;;;;;;0.40;0.30;;;7.70;1.00;;;;;;5094589;28;20435;-78
2021/03/13 11:39:57;;;;;;;0.53;0.50;;;7.70;1.00;;;;;;5095239;28;20279;-76
2021/03/13 11:42:27;;;;;;;0.40;0.40;;;7.70;1.00;;;;;;5082320;28;20246;-73
2021/03/13 11:44:56;;;;;;;2.07;0.50;;;7.70;1.00;;;;;;5074075;28;20389;-75
2021/03/13 11:47:27;;;;;;;2.73;0.30;;;7.60;1.00;;;;;;5074639;28;20394;-80
2021/03/13 11:50:06;;;;;;;7.07;0.50;;;7.70;1.00;;;;;;5073938;28;20437;-80
2021/03/13 11:52:32;;;;;;;0.40;0.40;;;7.70;1.00;;;;;;5072720;28;20405;-79
2021/03/13 11:54:58;;;;;;;0.50;0.40;;;7.90;1.00;;;;;;5074230;28;20417;-73
2021/03/13 11:57:24;;;;;;;1.90;0.50;;;;;;;;;;5072070;28;20415;-71
2021/03/13 11:59:51;;;;;;;0.83;0.50;;;8.00;1.00;;;;;;5055475;28;20505;-73
2021/03/13 12:02:20;;;;;;;2.63;0.80;;;8.00;1.00;;;;;;5053870;28;20417;-72
2021/03/13 12:04:46;;;;;;;1.67;0.60;;;8.20;1.00;;;;;;5057766;28;20510;-75
2021/03/13 12:07:14;;;;;;;0.97;0.40;;;8.10;1.00;;;;;;5059689;28;20515;-73
2021/03/13 12:09:44;;;;;;;0.40;0.40;;;8.20;1.00;;;;;;5071497;28;20199;-76
2021/03/13 12:12:11;;;;;;;0.50;0.50;;;8.30;1.00;;;;;;5073637;28;20810;-76
2021/03/13 12:14:37;;;;;;;0.97;0.50;;;8.40;1.00;;;;;;5073249;28;20402;-80
2021/03/13 12:17:06;;;;;;;0.70;0.50;;;;;;;;;;5073650;28;20443;-76
2021/03/13 12:19:32;;;;;;;1.17;0.50;;;8.30;1.00;;;;;;5073842;28;20397;-77
2021/03/13 12:22:21;;;;;;;0.43;0.43;;;8.30;1.00;;;;;;5088179;28;20904;-76
2021/03/13 12:24:48;;;;;;;0.50;0.40;;;8.30;1.00;;;;;;5053896;28;20156;-73
2021/03/13 12:27:14;;;;;;;1.73;0.40;;;8.20;1.00;;;;;;5053387;28;20398;-73
2021/03/13 12:29:39;;;;;;;0.40;0.40;;;8.20;1.00;;;;;;5053402;28;20442;-73
2021/03/13 12:32:08;;;;;;;4.73;0.50;;;8.30;1.00;;;;;;5063941;28;20413;-75
2021/03/13 12:34:34;;;;;;;0.47;0.47;;;8.20;1.00;;;;;;5094054;28;20263;-75
2021/03/13 12:37:14;;;;;;;0.40;0.33;;;8.20;1.00;;;;;;5093768;28;20880;-74
2021/03/13 12:39:40;;;;;;;0.40;0.40;;;8.10;1.00;;;;;;5094116;28;20412;-73
2021/03/13 12:42:07;;;;;;;0.70;0.40;;;;;;;;;;5093738;28;20416;-73
2021/03/13 12:44:33;;;;;;;0.30;0.30;;;7.90;1.00;;;;;;5077581;28;20421;-73
2021/03/13 12:46:59;;;;;;;0.40;0.40;;;8.00;1.00;;;;;;5088954;28;20738;-73
2021/03/13 12:49:25;;;;;;;2.83;0.40;;;;;;;;;;5072282;28;20444;-73
2021/03/13 12:51:51;;;;;;;0.40;0.40;;;;;;;;;;5062172;28;20618;-72
2021/03/13 12:54:17;;;;;;;0.40;0.40;;;;;;;;;;5070129;28;20408;-73
2021/03/13 12:56:43;;;;;;;0.60;0.47;;;;;;;;;;5072375;28;20404;-72
2021/03/13 12:59:09;;;;;;;0.93;0.40;;;;;;;;;;5072423;28;20489;-73
2021/03/13 13:01:35;;;;;;;1.40;0.67;;;;;;;;;;5072472;28;20398;-72
2021/03/13 13:04:01;;;;;;;0.70;0.50;;;;;;;;;;5072524;28;20390;-81
2021/03/13 13:06:28;;;;;;;0.40;0.30;;;;;;;;;;5072135;28;20469;-81
2021/03/13 13:08:55;;;;;;;0.73;0.40;;;9.20;1.00;;;;;;5068360;28;20417;-78
2021/03/13 13:11:24;;;;;;;1.17;0.50;;;9.20;1.00;;;;;;5072502;28;21046;-77
2021/03/13 13:13:52;;;;;;;0.40;0.40;;;9.20;1.00;;;;;;5072781;28;20397;-79
2021/03/13 13:16:21;;;;;;;1.10;0.70;;;9.40;1.00;;;;;;5072031;28;20409;-80
2021/03/13 13:18:47;;;;;;;1.23;0.70;;;;;;;;;;5070931;28;20432;-81
2021/03/13 13:21:13;;;;;;;3.10;0.60;;;;;;;;;;5070806;28;20436;-80
2021/03/13 13:23:40;;;;;;;1.83;0.50;;;9.80;1.00;;;;;;5071494;28;20416;-81
2021/03/13 13:26:07;;;;;;;0.53;0.53;;;;;;;;;;5072149;28;20417;-77
2021/03/13 13:28:33;;;;;;;1.10;0.53;;;;;;;;;;5072270;28;20404;-75
2021/03/13 13:30:59;;;;;;;0.60;0.60;;;;;;;;;;5070602;28;20972;-75
2021/03/13 13:33:25;;;;;;;1.70;0.87;;;;;;;;;;5059323;28;20447;-76
2021/03/13 13:35:52;;;;;;;0.70;0.60;;;10.20;1.00;;;;;;5069561;28;20950;-75
2021/03/13 13:38:18;;;;;;;1.00;0.80;;;10.20;1.00;;;;;;5073969;28;20448;-75
2021/03/13 13:40:45;;;;;;;0.63;0.63;;;10.10;1.00;;;;;;5075983;28;20437;-74
2021/03/13 13:43:11;;;;;;;1.33;0.57;;;;;;;;;;5075603;28;20410;-74
2021/03/13 13:45:38;;;;;;;0.80;0.77;;;;;;;;;;5075453;28;20404;-74